createdAt,value
2018-07-20T00:01:57.179Z,99.90
2018-07-20T00:04:26.254Z,99.90
2018-07-20T00:06:55.292Z,99.90
2018-07-20T00:09:24.295Z,99.90
2018-07-20T00:11:53.327Z,99.90
2018-07-20T00:14:22.311Z,99.90
2018-07-20T00:16:51.436Z,99.90
2018-07-20T00:19:20.976Z,99.90
2018-07-20T00:21:49.957Z,99.90
2018-07-20T00:24:19.110Z,99.90
2018-07-20T00:26:48.108Z,99.90
2018-07-20T00:29:17.157Z,99.90
2018-07-20T00:31:46.191Z,99.90
2018-07-20T00:34:15.285Z,99.90
2018-07-20T00:36:44.259Z,99.90
2018-07-20T00:39:13.520Z,99.90
2018-07-20T00:41:42.576Z,99.90
2018-07-20T00:46:40.492Z,99.90
2018-07-20T00:49:09.487Z,99.90
2018-07-20T00:51:38.546Z,99.90
2018-07-20T00:54:07.643Z,99.90
2018-07-20T00:56:36.716Z,99.90
2018-07-20T00:59:06.316Z,99.90
2018-07-20T01:01:35.335Z,99.90
2018-07-20T01:04:04.468Z,99.90
2018-07-20T01:06:33.449Z,99.90
2018-07-20T01:09:02.421Z,99.90
2018-07-20T01:11:31.411Z,99.90
2018-07-20T01:14:00.360Z,99.90
2018-07-20T01:16:29.478Z,99.90
2018-07-20T01:18:58.536Z,99.90
2018-07-20T01:21:27.571Z,99.90
2018-07-20T01:23:56.776Z,99.90
2018-07-20T01:26:25.795Z,99.90
2018-07-20T01:28:55.129Z,99.90
2018-07-20T01:31:24.100Z,99.90
2018-07-20T01:33:53.115Z,99.90
2018-07-20T01:36:22.224Z,99.90
2018-07-20T01:38:51.294Z,99.90
2018-07-20T01:41:20.339Z,99.90
2018-07-20T01:46:17.936Z,99.90
2018-07-20T01:48:47.142Z,99.90
2018-07-20T01:51:16.139Z,99.90
2018-07-20T01:53:45.116Z,99.90
2018-07-20T01:56:14.360Z,99.90
2018-07-20T01:58:43.651Z,99.90
2018-07-20T02:01:12.617Z,99.90
2018-07-20T02:03:41.638Z,99.90
2018-07-20T02:06:10.690Z,99.90
2018-07-20T02:08:39.644Z,99.90
2018-07-20T02:11:08.747Z,99.90
2018-07-20T02:13:37.692Z,99.90
2018-07-20T02:18:35.310Z,99.90
2018-07-20T02:21:04.356Z,99.90
2018-07-20T02:23:33.392Z,99.90
2018-07-20T02:26:02.359Z,99.90
2018-07-20T02:28:31.352Z,99.90
2018-07-20T02:31:00.417Z,99.90
2018-07-20T02:33:29.383Z,99.90
2018-07-20T02:35:58.739Z,99.90
2018-07-20T02:38:27.710Z,99.90
2018-07-20T02:40:56.795Z,99.90
2018-07-20T02:43:25.900Z,99.90
2018-07-20T02:45:54.995Z,99.90
2018-07-20T02:48:24.089Z,99.90
2018-07-20T02:50:53.194Z,99.90
2018-07-20T02:53:22.331Z,99.90
2018-07-20T02:55:52.112Z,99.90
2018-07-20T02:58:21.104Z,99.90
2018-07-20T03:00:50.167Z,99.90
2018-07-20T03:03:19.201Z,99.90
2018-07-20T03:05:48.204Z,99.90
2018-07-20T03:08:17.352Z,99.90
2018-07-20T03:10:46.344Z,99.90
2018-07-20T03:13:15.423Z,99.90
2018-07-20T03:15:44.439Z,99.90
2018-07-20T03:18:13.384Z,99.90
2018-07-20T03:20:42.444Z,99.90
2018-07-20T03:23:11.440Z,99.90
2018-07-20T03:25:40.479Z,99.90
2018-07-20T03:28:09.453Z,99.90
2018-07-20T03:30:38.485Z,99.90
2018-07-20T03:33:07.466Z,99.90
2018-07-20T03:35:36.489Z,99.90
2018-07-20T03:38:05.553Z,99.90
2018-07-20T03:40:34.604Z,99.90
2018-07-20T03:43:03.911Z,99.90
2018-07-20T03:45:33.026Z,99.90
2018-07-20T03:48:02.032Z,99.90
2018-07-20T03:50:31.053Z,99.90
2018-07-20T03:53:00.285Z,99.90
2018-07-20T03:55:29.452Z,99.90
2018-07-20T03:57:58.597Z,99.90
2018-07-20T04:00:27.573Z,99.90
2018-07-20T04:02:56.586Z,99.90
2018-07-20T04:05:25.750Z,99.90
2018-07-20T04:07:54.869Z,99.90
2018-07-20T04:10:23.936Z,99.90
2018-07-20T04:12:53.097Z,99.90
2018-07-20T04:15:22.090Z,99.90
2018-07-20T04:17:51.055Z,99.90
2018-07-20T04:20:21.718Z,99.90
2018-07-20T04:22:50.704Z,99.90
2018-07-20T04:25:19.731Z,99.90
2018-07-20T04:27:49.281Z,99.90
2018-07-20T04:30:18.334Z,99.90
2018-07-20T04:32:47.342Z,99.90
2018-07-20T04:35:16.354Z,99.90
2018-07-20T04:37:45.462Z,99.90
2018-07-20T04:40:14.424Z,99.90
2018-07-20T04:42:43.616Z,99.90
2018-07-20T04:45:12.753Z,99.90
2018-07-20T04:47:41.862Z,99.90
2018-07-20T04:50:10.856Z,99.90
2018-07-20T04:52:40.151Z,99.90
2018-07-20T04:55:09.289Z,99.90
2018-07-20T04:57:38.252Z,99.90
2018-07-20T05:02:35.849Z,99.90
2018-07-20T05:05:04.843Z,99.90
2018-07-20T05:07:33.843Z,99.90
2018-07-20T05:10:02.904Z,99.90
2018-07-20T05:12:31.896Z,99.90
2018-07-20T05:15:02.698Z,99.90
2018-07-20T05:17:31.706Z,99.90
2018-07-20T05:20:00.668Z,99.90
2018-07-20T05:22:29.672Z,99.90
2018-07-20T05:24:58.657Z,99.90
2018-07-20T05:27:27.737Z,99.90
2018-07-20T05:29:56.716Z,99.90
2018-07-20T05:32:25.734Z,99.90
2018-07-20T05:37:23.330Z,99.90
2018-07-20T05:39:52.295Z,99.90
2018-07-20T05:42:21.284Z,99.90
2018-07-20T05:44:50.250Z,99.90
2018-07-20T05:47:19.279Z,99.90
2018-07-20T05:49:48.317Z,99.90
2018-07-20T05:52:17.951Z,99.90
2018-07-20T05:54:46.929Z,99.90
2018-07-20T05:57:21.891Z,99.90
2018-07-20T05:59:50.881Z,99.90
2018-07-20T06:02:19.852Z,99.90
2018-07-20T06:04:48.823Z,99.90
2018-07-20T06:07:17.949Z,99.90
2018-07-20T06:09:47.563Z,99.90
2018-07-20T06:12:16.867Z,99.90
2018-07-20T06:14:45.947Z,99.90
2018-07-20T06:17:14.964Z,99.90
2018-07-20T06:19:43.953Z,99.90
2018-07-20T06:22:13.015Z,99.90
2018-07-20T06:24:42.044Z,99.90
2018-07-20T06:27:11.001Z,99.90
2018-07-20T06:29:40.160Z,99.90
2018-07-20T06:32:09.156Z,99.90
2018-07-20T06:34:38.145Z,99.90
2018-07-20T06:37:07.159Z,99.90
2018-07-20T06:39:36.160Z,99.90
2018-07-20T06:42:05.146Z,99.90
2018-07-20T06:44:34.236Z,99.90
2018-07-20T06:47:03.241Z,99.90
2018-07-20T06:49:32.323Z,99.90
2018-07-20T06:52:01.278Z,99.90
2018-07-20T06:54:30.309Z,99.90
2018-07-20T06:56:59.393Z,99.90
2018-07-20T06:59:28.521Z,99.90
2018-07-20T07:01:57.638Z,99.90
2018-07-20T07:04:26.583Z,99.90
2018-07-20T07:06:55.546Z,99.90
2018-07-20T07:09:24.632Z,99.90
2018-07-20T07:11:53.690Z,99.90
2018-07-20T07:14:22.679Z,99.90
2018-07-20T07:16:51.647Z,99.90
2018-07-20T07:19:20.680Z,99.90
2018-07-20T07:21:49.668Z,99.90
2018-07-20T07:29:15.832Z,99.90
2018-07-20T07:31:44.843Z,99.90
2018-07-20T07:34:14.057Z,99.90
2018-07-20T07:36:42.993Z,99.90
2018-07-20T07:39:13.287Z,99.90
2018-07-20T07:41:42.842Z,99.90
2018-07-20T07:44:11.811Z,99.90
2018-07-20T07:46:40.777Z,99.90
2018-07-20T07:49:09.891Z,99.90
2018-07-20T07:51:38.913Z,99.90
2018-07-20T07:54:07.906Z,99.50
2018-07-20T07:56:36.916Z,99.40
2018-07-20T07:59:06.029Z,99.50
2018-07-20T08:01:35.092Z,98.20
2018-07-20T08:04:04.054Z,97.70
2018-07-20T08:06:33.139Z,97.50
2018-07-20T08:11:30.727Z,96.80
2018-07-20T08:13:59.747Z,96.60
2018-07-20T08:16:28.734Z,96.30
2018-07-20T08:18:57.832Z,95.90
2018-07-20T08:21:26.881Z,95.20
2018-07-20T08:23:55.892Z,95.00
2018-07-20T08:26:25.000Z,94.70
2018-07-20T08:28:53.988Z,94.40
2018-07-20T08:31:23.268Z,93.90
2018-07-20T08:33:52.231Z,93.90
2018-07-20T08:36:21.324Z,93.30
2018-07-20T08:38:50.284Z,93.20
2018-07-20T08:41:19.842Z,93.00
2018-07-20T08:43:48.867Z,93.30
2018-07-20T08:46:18.165Z,92.70
2018-07-20T08:48:47.160Z,91.60
2018-07-20T08:51:16.307Z,90.90
2018-07-20T08:53:45.850Z,91.50
2018-07-20T08:56:15.448Z,91.90
2018-07-20T08:58:44.539Z,91.60
2018-07-20T09:01:13.496Z,90.90
2018-07-20T09:03:42.497Z,90.00
2018-07-20T09:06:11.459Z,88.70
2018-07-20T09:08:40.483Z,88.70
2018-07-20T09:11:09.438Z,90.30
2018-07-20T09:13:38.487Z,90.80
2018-07-20T09:16:07.740Z,90.40
2018-07-20T09:18:36.712Z,89.40
2018-07-20T09:21:05.738Z,90.50
2018-07-20T09:23:34.795Z,90.60
2018-07-20T09:26:03.939Z,90.40
2018-07-20T09:28:33.253Z,90.30
2018-07-20T09:31:02.354Z,88.20
2018-07-20T09:33:31.424Z,88.10
2018-07-20T09:36:00.422Z,87.90
2018-07-20T09:38:29.418Z,90.00
2018-07-20T09:40:58.485Z,89.90
2018-07-20T09:43:27.708Z,88.50
2018-07-20T09:45:56.789Z,85.60
2018-07-20T09:48:25.815Z,84.60
2018-07-20T09:50:54.851Z,84.30
2018-07-20T09:53:23.812Z,85.30
2018-07-20T09:55:52.819Z,82.80
2018-07-20T09:58:21.857Z,79.40
2018-07-20T10:00:51.722Z,79.20
2018-07-20T10:03:22.051Z,75.90
2018-07-20T10:05:51.103Z,75.10
2018-07-20T10:08:20.739Z,74.10
2018-07-20T10:10:49.870Z,75.30
2018-07-20T10:13:19.157Z,74.90
2018-07-20T10:15:48.293Z,73.90
2018-07-20T10:18:17.284Z,73.20
2018-07-20T10:20:46.353Z,71.80
2018-07-20T10:23:15.433Z,70.90
2018-07-20T10:25:44.590Z,71.70
2018-07-20T10:28:13.516Z,72.60
2018-07-20T10:33:11.110Z,70.60
2018-07-20T10:35:40.127Z,68.70
2018-07-20T10:38:09.122Z,69.20
2018-07-20T10:40:39.244Z,68.50
2018-07-20T10:43:08.267Z,63.70
2018-07-20T10:45:37.223Z,63.60
2018-07-20T10:50:34.827Z,62.40
2018-07-20T10:53:03.973Z,60.30
2018-07-20T10:55:33.021Z,58.10
2018-07-20T10:58:01.982Z,58.00
2018-07-20T11:00:30.946Z,57.10
2018-07-20T11:02:59.992Z,56.20
2018-07-20T11:05:28.958Z,56.60
2018-07-20T11:07:57.951Z,56.30
2018-07-20T11:10:26.946Z,56.30
2018-07-20T11:12:55.931Z,57.00
2018-07-20T11:15:25.029Z,57.30
2018-07-20T11:17:54.077Z,57.70
2018-07-20T11:20:23.025Z,54.70
2018-07-20T11:22:52.042Z,52.00
2018-07-20T11:25:21.148Z,51.90
2018-07-20T11:27:50.172Z,52.80
2018-07-20T11:30:19.200Z,52.80
2018-07-20T11:32:48.143Z,52.90
2018-07-20T11:37:45.963Z,52.70
2018-07-20T11:40:14.923Z,50.00
2018-07-20T11:42:44.401Z,47.80
2018-07-20T11:45:13.379Z,45.70
2018-07-20T11:47:42.339Z,44.80
2018-07-20T11:50:11.428Z,44.10
2018-07-20T11:52:40.404Z,45.10
2018-07-20T11:55:09.409Z,46.30
2018-07-20T11:57:38.421Z,45.10
2018-07-20T12:00:07.391Z,46.40
2018-07-20T12:02:36.382Z,46.60
2018-07-20T12:05:06.011Z,46.80
2018-07-20T12:10:03.633Z,46.50
2018-07-20T12:12:32.603Z,47.10
2018-07-20T12:15:01.745Z,47.10
2018-07-20T12:17:30.734Z,47.70
2018-07-20T12:19:59.726Z,47.00
2018-07-20T12:22:28.687Z,48.20
2018-07-20T12:24:57.776Z,48.20
2018-07-20T12:27:26.740Z,48.00
2018-07-20T12:29:55.702Z,47.80
2018-07-20T12:32:24.819Z,47.60
2018-07-20T12:34:53.796Z,49.00
2018-07-20T12:37:22.942Z,48.90
2018-07-20T12:39:52.292Z,49.70
2018-07-20T12:42:21.230Z,48.90
2018-07-20T12:44:50.340Z,46.70
2018-07-20T12:47:19.311Z,47.00
2018-07-20T12:49:48.421Z,47.90
2018-07-20T12:52:17.381Z,47.40
2018-07-20T12:54:46.392Z,47.80
2018-07-20T12:57:15.435Z,47.10
2018-07-20T12:59:45.354Z,46.70
2018-07-20T13:02:14.329Z,47.10
2018-07-20T13:04:43.284Z,46.60
2018-07-20T13:07:12.224Z,46.70
2018-07-20T13:09:41.185Z,46.60
2018-07-20T13:12:10.255Z,46.00
2018-07-20T13:14:39.251Z,46.90
2018-07-20T13:17:08.151Z,46.60
2018-07-20T13:19:37.139Z,47.30
2018-07-20T13:22:06.717Z,47.60
2018-07-20T13:24:35.747Z,46.70
2018-07-20T13:27:04.827Z,47.90
2018-07-20T13:29:33.796Z,47.70
2018-07-20T13:32:02.773Z,46.90
2018-07-20T13:34:31.732Z,46.10
2018-07-20T13:37:00.840Z,47.00
2018-07-20T13:41:58.359Z,47.80
2018-07-20T13:44:27.314Z,47.40
2018-07-20T13:46:56.349Z,47.00
2018-07-20T13:49:25.430Z,46.90
2018-07-20T13:51:54.361Z,46.20
2018-07-20T13:54:23.564Z,46.60
2018-07-20T13:56:52.503Z,45.00
2018-07-20T13:59:21.622Z,45.20
2018-07-20T14:01:50.601Z,45.20
2018-07-20T14:04:19.606Z,46.50
2018-07-20T14:06:48.603Z,47.30
2018-07-20T14:09:17.695Z,48.40
2018-07-20T14:11:46.701Z,48.60
2018-07-20T14:14:15.706Z,49.10
2018-07-20T14:16:44.725Z,48.60
2018-07-20T14:19:13.691Z,48.80
2018-07-20T14:21:42.930Z,48.70
2018-07-20T14:26:41.494Z,48.70
2018-07-20T14:29:10.452Z,48.40
2018-07-20T14:31:39.565Z,48.90
2018-07-20T14:34:08.499Z,47.30
2018-07-20T14:36:37.592Z,47.10
2018-07-20T14:39:09.455Z,46.80
2018-07-20T14:41:38.545Z,45.90
2018-07-20T14:44:07.610Z,45.90
2018-07-20T14:46:36.756Z,46.20
2018-07-20T14:49:05.859Z,46.40
2018-07-20T14:51:34.967Z,46.40
2018-07-20T14:54:04.237Z,46.50
2018-07-20T14:56:33.223Z,46.00
2018-07-20T14:59:02.372Z,45.60
2018-07-20T15:01:31.391Z,45.10
2018-07-20T15:04:00.362Z,45.00
2018-07-20T15:06:29.355Z,45.60
2018-07-20T15:08:58.418Z,45.70
2018-07-20T15:11:27.487Z,45.60
2018-07-20T15:13:56.561Z,46.20
2018-07-20T15:16:25.678Z,45.80
2018-07-20T15:18:54.645Z,46.00
2018-07-20T15:21:23.721Z,45.70
2018-07-20T15:23:52.666Z,46.20
2018-07-20T15:26:21.637Z,46.40
2018-07-20T15:28:50.582Z,46.40
2018-07-20T15:31:19.802Z,46.30
2018-07-20T15:33:48.700Z,47.40
2018-07-20T15:36:17.769Z,47.50
2018-07-20T15:38:46.753Z,47.20
2018-07-20T15:41:15.923Z,47.50
2018-07-20T15:43:45.098Z,47.80
2018-07-20T15:46:14.119Z,47.70
2018-07-20T15:48:43.073Z,48.20
2018-07-20T15:51:13.054Z,48.70
2018-07-20T15:53:42.079Z,48.90
2018-07-20T15:56:11.030Z,49.00
2018-07-20T15:58:40.133Z,48.80
2018-07-20T16:01:09.101Z,49.00
2018-07-20T16:03:38.076Z,48.70
2018-07-20T16:06:07.565Z,48.80
2018-07-20T16:08:36.533Z,48.10
2018-07-20T16:11:05.649Z,48.30
2018-07-20T16:13:34.727Z,48.40
2018-07-20T16:16:03.796Z,48.90
2018-07-20T16:18:32.768Z,49.10
2018-07-20T16:21:01.790Z,49.60
2018-07-20T16:23:30.888Z,50.20
2018-07-20T16:25:59.923Z,50.10
2018-07-20T16:28:29.008Z,51.20
2018-07-20T16:30:57.952Z,50.10
2018-07-20T16:33:26.970Z,49.40
2018-07-20T16:38:24.555Z,49.60
2018-07-20T16:40:53.517Z,49.80
2018-07-20T16:43:22.569Z,49.90
2018-07-20T16:45:51.925Z,50.40
2018-07-20T16:48:21.072Z,50.20
2018-07-20T16:50:50.220Z,50.30
2018-07-20T16:53:19.285Z,51.00
2018-07-20T16:55:49.011Z,50.80
2018-07-20T16:58:18.103Z,50.90
2018-07-20T17:00:47.154Z,50.60
2018-07-20T17:03:16.624Z,51.30
2018-07-20T17:05:45.615Z,51.70
2018-07-20T17:08:14.672Z,51.10
2018-07-20T17:10:43.715Z,51.50
2018-07-20T17:13:12.868Z,51.50
2018-07-20T17:15:42.019Z,51.60
2018-07-20T17:18:11.034Z,51.80
2018-07-20T17:20:40.722Z,52.10
2018-07-20T17:23:09.910Z,52.60
2018-07-20T17:25:38.908Z,52.70
2018-07-20T17:28:08.007Z,52.60
2018-07-20T17:30:36.975Z,52.60
2018-07-20T17:33:06.128Z,52.90
2018-07-20T17:35:35.354Z,52.90
2018-07-20T17:38:04.351Z,53.20
2018-07-20T17:40:33.408Z,53.80
2018-07-20T17:43:02.366Z,53.90
2018-07-20T17:45:31.344Z,54.00
2018-07-20T17:48:00.395Z,54.50
2018-07-20T17:50:29.352Z,54.20
2018-07-20T17:52:58.503Z,55.10
2018-07-20T17:55:27.477Z,54.80
2018-07-20T17:57:56.580Z,55.10
2018-07-20T18:00:25.604Z,55.40
2018-07-20T18:02:54.598Z,55.40
2018-07-20T18:05:23.580Z,55.10
2018-07-20T18:07:52.708Z,55.30
2018-07-20T18:10:21.720Z,55.50
2018-07-20T18:12:50.722Z,55.70
2018-07-20T18:15:19.688Z,55.90
2018-07-20T18:17:48.882Z,56.10
2018-07-20T18:20:17.912Z,56.20
2018-07-20T18:22:47.014Z,56.50
2018-07-20T18:25:16.243Z,56.70
2018-07-20T18:27:45.266Z,56.70
2018-07-20T18:30:14.331Z,57.00
2018-07-20T18:35:12.932Z,57.50
2018-07-20T18:37:41.971Z,57.60
2018-07-20T18:40:10.980Z,57.80
2018-07-20T18:42:39.995Z,58.10
2018-07-20T18:45:09.241Z,58.20
2018-07-20T18:47:38.416Z,58.40
2018-07-20T18:50:08.589Z,58.50
2018-07-20T18:52:37.924Z,58.60
2018-07-20T18:55:07.475Z,58.80
2018-07-20T19:00:05.811Z,59.40
2018-07-20T19:02:34.802Z,59.50
2018-07-20T19:05:03.889Z,59.90
2018-07-20T19:07:32.988Z,60.00
2018-07-20T19:10:02.023Z,60.40
2018-07-20T19:12:31.136Z,61.00
2018-07-20T19:15:00.270Z,61.50
2018-07-20T19:17:29.300Z,61.90
2018-07-20T19:19:58.684Z,62.30
2018-07-20T19:22:27.747Z,62.60
2018-07-20T19:24:56.862Z,62.90
2018-07-20T19:27:26.050Z,63.20
2018-07-20T19:29:55.137Z,63.50
2018-07-20T19:32:24.295Z,63.60
2018-07-20T19:34:53.261Z,63.80
2018-07-20T19:37:22.317Z,64.20
2018-07-20T19:39:51.420Z,64.50
2018-07-20T19:42:20.720Z,64.80
2018-07-20T19:44:49.770Z,65.00
2018-07-20T19:47:19.045Z,65.30
2018-07-20T19:52:16.926Z,66.10
2018-07-20T19:54:46.001Z,66.20
2018-07-20T19:57:15.331Z,66.30
2018-07-20T19:59:44.756Z,66.50
2018-07-20T20:02:13.769Z,66.60
2018-07-20T20:04:42.771Z,66.80
2018-07-20T20:07:11.771Z,67.10
2018-07-20T20:09:40.767Z,67.20
2018-07-20T20:12:09.785Z,67.70
2018-07-20T20:14:38.741Z,68.10
2018-07-20T20:17:07.749Z,68.10
2018-07-20T20:19:36.712Z,68.70
2018-07-20T20:22:12.028Z,68.90
2018-07-20T20:24:41.001Z,69.30
2018-07-20T20:27:09.997Z,69.50
2018-07-20T20:29:38.980Z,69.60
2018-07-20T20:34:36.753Z,69.90
2018-07-20T20:37:05.756Z,70.00
2018-07-20T20:39:34.745Z,70.00
2018-07-20T20:42:03.794Z,70.10
2018-07-20T20:44:32.736Z,71.10
2018-07-20T20:47:01.767Z,71.10
2018-07-20T20:49:30.840Z,71.80
2018-07-20T20:51:59.835Z,72.30
2018-07-20T20:54:28.805Z,72.80
2018-07-20T20:56:57.825Z,73.60
2018-07-20T21:01:55.441Z,74.80
2018-07-20T21:04:24.473Z,74.30
2018-07-20T21:06:53.549Z,74.50
2018-07-20T21:09:22.575Z,75.00
2018-07-20T21:11:51.582Z,75.20
2018-07-20T21:14:20.544Z,75.70
2018-07-20T21:16:49.527Z,76.10
2018-07-20T21:19:19.137Z,76.50
2018-07-20T21:21:48.125Z,77.50
2018-07-20T21:24:17.136Z,77.20
2018-07-20T21:26:46.090Z,77.40
2018-07-20T21:29:15.080Z,77.60
2018-07-20T21:31:44.063Z,77.80
2018-07-20T21:34:13.019Z,78.20
2018-07-20T21:36:42.009Z,78.90
2018-07-20T21:39:12.535Z,79.00
2018-07-20T21:41:42.570Z,79.70
2018-07-20T21:44:11.657Z,79.40
2018-07-20T21:46:40.735Z,79.90
2018-07-20T21:49:09.822Z,80.00
2018-07-20T21:51:38.845Z,80.40
2018-07-20T21:54:07.847Z,80.70
2018-07-20T21:56:36.858Z,81.20
2018-07-20T21:59:05.824Z,81.40
2018-07-20T22:01:34.828Z,81.50
2018-07-20T22:04:03.869Z,81.70
2018-07-20T22:06:32.900Z,83.00
2018-07-20T22:09:02.057Z,83.00
2018-07-20T22:11:32.047Z,82.90
2018-07-20T22:14:00.992Z,83.50
2018-07-20T22:16:29.956Z,84.30
2018-07-20T22:18:59.011Z,84.70
2018-07-20T22:21:28.148Z,85.00
2018-07-20T22:23:57.141Z,86.40
2018-07-20T22:26:26.107Z,86.10
2018-07-20T22:28:55.119Z,86.80
2018-07-20T22:31:24.112Z,87.60
2018-07-20T22:33:53.089Z,87.40
2018-07-20T22:36:22.060Z,87.80
2018-07-20T22:38:51.199Z,89.70
2018-07-20T22:41:20.202Z,90.00
2018-07-20T22:43:49.196Z,90.10
2018-07-20T22:46:18.179Z,90.30
2018-07-20T22:48:47.174Z,90.40
2018-07-20T22:51:16.119Z,91.00
2018-07-20T22:53:45.150Z,90.90
2018-07-20T22:56:14.212Z,91.30
2018-07-20T22:58:43.307Z,91.60
2018-07-20T23:01:12.285Z,92.00
2018-07-20T23:03:41.280Z,92.40
2018-07-20T23:06:10.260Z,92.70
2018-07-20T23:08:39.231Z,92.90
2018-07-20T23:11:08.273Z,93.10
2018-07-20T23:13:37.368Z,93.20
2018-07-20T23:16:06.416Z,93.50
2018-07-20T23:18:35.460Z,93.60
2018-07-20T23:21:04.508Z,93.90
2018-07-20T23:23:33.656Z,94.20
2018-07-20T23:26:02.660Z,94.10
2018-07-20T23:28:31.770Z,94.30
2018-07-20T23:31:00.838Z,95.00
2018-07-20T23:33:29.928Z,95.10
2018-07-20T23:35:58.910Z,95.30
2018-07-20T23:38:27.983Z,94.90
2018-07-20T23:40:57.043Z,95.00
2018-07-20T23:43:26.143Z,95.60
2018-07-20T23:45:55.278Z,95.60
2018-07-20T23:48:24.242Z,95.60
2018-07-20T23:50:53.181Z,96.40
2018-07-20T23:53:22.150Z,96.20
2018-07-20T23:55:51.116Z,96.60
